Time;durP1;ratioP1;P1;durP2;ratioP2;P2;SDS_P1;SDS_P2;PMS_P1;PMS_P2;Temp;Humidity;BMP_temperature;BMP_pressure;BME280_temperature;BME280_humidity;BME280_pressure;Samples;Min_cycle;Max_cycle;Signal;HPM_P1;HPM_P2
2022/06/18 00:00:52;;;;;;;5.38;3.17;;;19.90;95.20;;;;;;5020485;28;20046;-63
2022/06/18 00:03:20;;;;;;;4.07;3.10;;;19.80;95.40;;;;;;5022773;28;20260;-63
2022/06/18 00:05:50;;;;;;;6.47;3.28;;;19.80;95.60;;;;;;5030171;28;20508;-63
2022/06/18 00:08:21;;;;;;;8.68;3.30;;;19.70;95.90;;;;;;5046325;28;20484;-63
2022/06/18 00:10:54;;;;;;;6.15;2.80;;;19.70;96.10;;;;;;5031206;28;20052;-63
2022/06/18 00:13:39;;;;;;;6.00;3.20;;;19.70;96.10;;;;;;5027461;28;20052;-63
2022/06/18 00:16:12;;;;;;;7.22;3.08;;;19.60;96.10;;;;;;5025724;28;20507;-63
2022/06/18 00:18:40;;;;;;;11.50;5.05;;;19.60;96.30;;;;;;5038630;28;20077;-63
2022/06/18 00:21:12;;;;;;;8.38;4.57;;;19.60;96.50;;;;;;5028646;28;20037;-63
2022/06/18 00:23:40;;;;;;;9.80;3.58;;;19.60;96.90;;;;;;5030267;28;20044;-63
2022/06/18 00:26:10;;;;;;;5.47;3.20;;;19.50;97.10;;;;;;5038142;28;20393;-63
2022/06/18 00:28:37;;;;;;;5.20;2.78;;;19.50;97.40;;;;;;5019756;28;20067;-63
2022/06/18 00:31:04;;;;;;;5.47;3.33;;;19.50;97.90;;;;;;5029251;28;20441;-62
2022/06/18 00:33:35;;;;;;;6.72;3.15;;;19.50;97.40;;;;;;5027190;28;20121;-62
2022/06/18 00:36:04;;;;;;;6.07;3.40;;;19.50;97.50;;;;;;5036285;28;20092;-63
2022/06/18 00:38:35;;;;;;;5.68;2.90;;;19.40;97.40;;;;;;5029127;28;20055;-63
2022/06/18 00:41:05;;;;;;;5.38;2.70;;;19.40;97.40;;;;;;5021378;28;20069;-63
2022/06/18 00:43:40;;;;;;;4.55;2.47;;;19.30;97.40;;;;;;5015549;28;20053;-62
2022/06/18 00:46:13;;;;;;;4.93;2.88;;;19.30;97.50;;;;;;5020233;28;20045;-62
2022/06/18 00:49:07;;;;;;;5.80;2.55;;;19.30;97.50;;;;;;5019095;28;20119;-62
2022/06/18 00:51:37;;;;;;;4.78;2.90;;;19.20;97.70;;;;;;5013585;28;20044;-63
2022/06/18 00:54:20;;;;;;;5.85;2.97;;;19.10;97.80;;;;;;5023311;28;20411;-62
2022/06/18 00:57:41;;;;;;;6.05;3.03;;;19.10;97.90;;;;;;5024230;28;20472;-64
2022/06/18 01:00:23;;;;;;;5.22;2.80;;;19.00;98.10;;;;;;5009214;28;20042;-63
2022/06/18 01:02:52;;;;;;;5.28;2.47;;;19.00;98.30;;;;;;5032407;28;20415;-63
2022/06/18 01:05:23;;;;;;;4.85;2.83;;;18.90;98.40;;;;;;5020723;28;20069;-63
2022/06/18 01:08:03;;;;;;;4.22;2.40;;;18.90;98.10;;;;;;5022960;28;20130;-63
2022/06/18 01:10:34;;;;;;;4.47;2.40;;;18.90;98.20;;;;;;5021724;28;20042;-63
2022/06/18 01:13:06;;;;;;;3.73;2.13;;;18.90;98.50;;;;;;5042097;28;20522;-63
2022/06/18 01:15:37;;;;;;;3.53;2.20;;;18.90;98.00;;;;;;5032090;28;20485;-63
2022/06/18 01:18:06;;;;;;;4.30;2.40;;;18.90;98.00;;;;;;5017786;28;20501;-64
2022/06/18 01:20:45;;;;;;;5.57;2.63;;;18.80;98.20;;;;;;5032541;28;20040;-62
2022/06/18 01:23:28;;;;;;;5.68;2.63;;;18.80;98.40;;;;;;5023431;28;20044;-63
2022/06/18 01:25:57;;;;;;;3.50;2.30;;;18.80;98.50;;;;;;5037980;28;20104;-64
2022/06/18 01:28:25;;;;;;;5.18;2.60;;;18.70;98.70;;;;;;5018911;28;20099;-65
2022/06/18 01:30:52;;;;;;;3.47;2.25;;;18.70;99.10;;;;;;5027710;28;20053;-64
2022/06/18 01:33:19;;;;;;;5.93;2.58;;;18.70;99.50;;;;;;4992443;28;20042;-64
2022/06/18 01:35:52;;;;;;;4.97;3.00;;;18.70;99.80;;;;;;5021631;28;20052;-63
2022/06/18 01:38:26;;;;;;;4.18;2.42;;;18.70;99.90;;;;;;5028498;28;20041;-63
2022/06/18 01:41:49;;;;;;;5.07;3.00;;;18.60;99.90;;;;;;5020361;28;20049;-63
2022/06/18 01:43:56;;;;;;;5.75;3.30;;;18.60;99.90;;;;;;5033976;28;20046;-63
2022/06/18 01:46:26;;;;;;;5.60;2.97;;;18.60;99.90;;;;;;5025162;28;20528;-63
2022/06/18 01:48:57;;;;;;;4.45;2.70;;;18.60;99.90;;;;;;5018492;28;20065;-63
2022/06/18 01:51:32;;;;;;;5.57;3.00;;;18.50;99.90;;;;;;5027202;28;20115;-63
2022/06/18 01:54:17;;;;;;;7.40;3.28;;;18.60;99.90;;;;;;5027384;28;20531;-63
2022/06/18 01:56:51;;;;;;;8.05;3.10;;;18.50;99.90;;;;;;5027488;28;20046;-63
2022/06/18 01:59:43;;;;;;;4.65;3.15;;;18.50;99.90;;;;;;5029354;28;20626;-64
2022/06/18 02:02:10;;;;;;;5.30;2.80;;;18.50;99.90;;;;;;5028489;28;20037;-63
2022/06/18 02:04:38;;;;;;;5.22;3.00;;;18.50;99.90;;;;;;5027008;28;20052;-63
2022/06/18 02:07:07;;;;;;;9.43;3.58;;;18.50;99.90;;;;;;5022443;28;20769;-63
2022/06/18 02:09:48;;;;;;;7.30;3.22;;;18.50;99.90;;;;;;5017909;28;20053;-63
2022/06/18 02:12:22;;;;;;;6.10;3.25;;;18.50;99.90;;;;;;5035956;28;20447;-63
2022/06/18 02:14:57;;;;;;;4.90;3.15;;;18.50;99.90;;;;;;5036168;28;20041;-63
2022/06/18 02:17:27;;;;;;;5.03;2.80;;;18.50;99.90;;;;;;5037836;28;20467;-63
2022/06/18 02:20:04;;;;;;;6.90;3.08;;;18.40;99.90;;;;;;5010035;28;20063;-63
2022/06/18 02:22:48;;;;;;;7.35;3.00;;;18.50;99.90;;;;;;5019022;28;20180;-63
2022/06/18 02:25:20;;;;;;;4.22;2.88;;;18.40;99.90;;;;;;5018020;28;20480;-63
2022/06/18 02:27:50;;;;;;;6.88;4.15;;;18.40;99.90;;;;;;5022133;28;20531;-63
2022/06/18 02:30:21;;;;;;;5.53;3.75;;;18.30;99.90;;;;;;5028015;28;20445;-63
2022/06/18 02:32:59;;;;;;;7.00;4.35;;;18.30;99.90;;;;;;5025634;28;20059;-63
2022/06/18 02:35:28;;;;;;;5.55;3.38;;;18.30;99.90;;;;;;5027866;28;20515;-63
2022/06/18 02:37:56;;;;;;;7.65;3.00;;;18.30;99.90;;;;;;5028859;28;20560;-63
2022/06/18 02:40:27;;;;;;;8.15;3.35;;;18.20;99.90;;;;;;5025739;28;20493;-63
2022/06/18 02:42:58;;;;;;;5.30;3.30;;;18.20;99.90;;;;;;5040432;28;20399;-63
2022/06/18 02:45:29;;;;;;;5.85;3.13;;;18.20;99.90;;;;;;5026509;28;20037;-63
2022/06/18 02:48:00;;;;;;;6.82;3.05;;;18.20;99.90;;;;;;5040928;28;20128;-63
2022/06/18 02:50:35;;;;;;;5.43;3.25;;;18.20;99.90;;;;;;5026291;28;20508;-63
2022/06/18 02:53:03;;;;;;;4.68;3.05;;;18.20;99.90;;;;;;5040468;28;20397;-63
2022/06/18 02:55:41;;;;;;;4.63;3.15;;;18.10;99.90;;;;;;5037868;28;20537;-63
2022/06/18 02:58:23;;;;;;;7.40;3.33;;;18.20;99.90;;;;;;5030015;28;20068;-63
2022/06/18 03:00:58;;;;;;;5.00;3.05;;;18.10;99.90;;;;;;5026410;28;20852;-63
2022/06/18 03:03:29;;;;;;;4.80;3.03;;;18.20;99.90;;;;;;5026600;28;20040;-63
2022/06/18 03:05:59;;;;;;;6.13;3.00;;;18.10;99.90;;;;;;5028762;28;20046;-63
2022/06/18 03:08:29;;;;;;;5.22;3.05;;;18.00;99.90;;;;;;5022111;28;20128;-63
2022/06/18 03:13:43;;;;;;;5.15;3.00;;;18.00;99.90;;;;;;5033816;28;20582;-64
2022/06/18 03:16:15;;;;;;;5.25;2.90;;;18.00;99.90;;;;;;5033961;28;20049;-64
2022/06/18 03:18:44;;;;;;;7.55;3.08;;;18.00;99.90;;;;;;5030055;28;20676;-65
2022/06/18 03:21:32;;;;;;;5.70;2.83;;;17.90;99.90;;;;;;5034427;28;20045;-63
2022/06/18 03:24:00;;;;;;;4.90;2.95;;;17.90;99.90;;;;;;5031305;28;20520;-63
2022/06/18 03:26:30;;;;;;;6.65;3.10;;;17.90;99.90;;;;;;5029671;28;20538;-64
2022/06/18 03:28:58;;;;;;;4.05;2.80;;;17.90;99.90;;;;;;5034071;28;20049;-63
2022/06/18 03:31:26;;;;;;;6.25;2.70;;;17.90;99.90;;;;;;5021300;28;20092;-63
2022/06/18 03:33:53;;;;;;;4.43;2.80;;;17.90;99.90;;;;;;5039332;28;20463;-63
2022/06/18 03:36:22;;;;;;;4.07;2.80;;;17.90;99.90;;;;;;5036608;28;20099;-63
2022/06/18 03:38:49;;;;;;;4.88;2.75;;;17.90;99.90;;;;;;5030012;28;20504;-63
2022/06/18 03:41:19;;;;;;;3.67;2.33;;;17.90;99.90;;;;;;5039198;28;20033;-63
2022/06/18 03:43:46;;;;;;;6.75;3.20;;;17.90;99.90;;;;;;5022099;28;20505;-63
2022/06/18 03:46:17;;;;;;;4.82;2.67;;;18.00;99.90;;;;;;5027964;28;20025;-63
2022/06/18 03:48:50;;;;;;;6.93;2.40;;;18.00;99.90;;;;;;5028241;28;20049;-63
2022/06/18 03:51:22;;;;;;;5.18;2.70;;;18.00;99.90;;;;;;5026499;28;20444;-63
2022/06/18 03:53:50;;;;;;;3.72;2.40;;;18.10;99.90;;;;;;5028974;28;20767;-63
2022/06/18 03:56:21;;;;;;;4.95;2.55;;;18.10;99.90;;;;;;5029092;28;20152;-64
2022/06/18 03:58:50;;;;;;;6.00;2.83;;;18.10;99.90;;;;;;5029082;28;20057;-63
2022/06/18 04:01:25;;;;;;;6.10;2.53;;;18.20;99.90;;;;;;5020183;28;20493;-63
2022/06/18 04:03:53;;;;;;;3.85;2.40;;;18.20;99.90;;;;;;5016194;28;20041;-64
2022/06/18 04:06:40;;;;;;;4.40;2.70;;;18.30;99.90;;;;;;5027557;28;20046;-64
2022/06/18 04:09:28;;;;;;;7.03;2.33;;;18.30;99.90;;;;;;5031980;28;20643;-64
2022/06/18 04:11:55;;;;;;;4.47;2.60;;;18.30;99.90;;;;;;5021716;28;20060;-63
2022/06/18 04:14:23;;;;;;;5.95;2.67;;;18.40;99.90;;;;;;5028904;28;20567;-64
2022/06/18 04:17:15;;;;;;;4.90;2.58;;;18.50;99.90;;;;;;5029527;28;20086;-64
2022/06/18 04:19:44;;;;;;;6.13;2.58;;;18.50;99.90;;;;;;5027608;28;20045;-63
2022/06/18 04:22:12;;;;;;;6.65;3.70;;;18.60;99.90;;;;;;5027749;28;20131;-64
2022/06/18 04:24:47;;;;;;;6.68;3.65;;;18.70;99.90;;;;;;5027379;28;20041;-64
2022/06/18 04:27:15;;;;;;;5.85;3.42;;;18.70;99.90;;;;;;5028154;28;20045;-64
2022/06/18 04:29:43;;;;;;;4.60;2.67;;;18.70;99.90;;;;;;5028841;28;20145;-64
2022/06/18 04:32:10;;;;;;;7.28;3.40;;;18.80;99.90;;;;;;5026369;28;20445;-63
2022/06/18 04:34:38;;;;;;;9.15;6.05;;;18.80;99.90;;;;;;5010955;28;20056;-63
2022/06/18 04:37:08;;;;;;;8.18;4.10;;;18.80;99.90;;;;;;5012112;28;20044;-64
2022/06/18 04:39:43;;;;;;;7.72;2.92;;;18.90;99.90;;;;;;5009803;28;20066;-64
2022/06/18 04:42:25;;;;;;;5.22;3.50;;;19.00;99.90;;;;;;5016888;28;20068;-64
2022/06/18 04:44:54;;;;;;;8.90;4.88;;;19.00;99.90;;;;;;5005460;28;20076;-64
2022/06/18 04:47:30;;;;;;;9.82;4.47;;;19.10;99.90;;;;;;5025461;28;20057;-64
2022/06/18 04:50:00;;;;;;;7.45;3.60;;;19.20;99.90;;;;;;5032518;28;20055;-64
2022/06/18 04:52:28;;;;;;;10.13;3.35;;;19.30;99.90;;;;;;4999381;28;20045;-64
2022/06/18 04:55:00;;;;;;;5.18;2.90;;;19.30;99.90;;;;;;5022172;28;20133;-66
2022/06/18 04:57:30;;;;;;;6.38;3.05;;;19.40;99.90;;;;;;5038045;28;20092;-66
2022/06/18 04:59:58;;;;;;;6.05;2.78;;;19.50;99.90;;;;;;5025393;28;20133;-65
2022/06/18 05:02:31;;;;;;;4.50;2.65;;;19.60;99.90;;;;;;5034469;28;20049;-65
2022/06/18 05:05:10;;;;;;;4.95;2.67;;;19.60;99.90;;;;;;5029876;28;20454;-65
2022/06/18 05:07:56;;;;;;;5.80;3.05;;;19.60;99.90;;;;;;5022059;28;20037;-64
2022/06/18 05:10:44;;;;;;;6.53;3.03;;;19.70;99.90;;;;;;5019245;28;20129;-65
2022/06/18 05:13:22;;;;;;;4.90;2.90;;;19.80;99.90;;;;;;5030593;28;20045;-65
2022/06/18 05:15:59;;;;;;;5.70;2.60;;;19.90;99.90;;;;;;5032005;28;20049;-65
2022/06/18 05:18:30;;;;;;;6.60;2.85;;;19.90;99.90;;;;;;5019603;28;20098;-65
2022/06/18 05:20:58;;;;;;;8.70;3.60;;;20.00;99.90;;;;;;5036438;28;20487;-65
2022/06/18 05:23:28;;;;;;;5.65;2.75;;;20.10;99.90;;;;;;5031981;28;20055;-65
2022/06/18 05:25:58;;;;;;;5.60;2.83;;;20.20;99.90;;;;;;5031524;28;20037;-65
2022/06/18 05:28:26;;;;;;;6.75;2.95;;;20.20;99.90;;;;;;5024693;28;20136;-65
2022/06/18 05:30:54;;;;;;;6.18;2.60;;;20.30;99.90;;;;;;5027736;28;20120;-64
2022/06/18 05:33:23;;;;;;;5.60;2.90;;;20.30;99.90;;;;;;5027846;28;20073;-64
2022/06/18 05:35:53;;;;;;;5.88;3.05;;;20.40;99.90;;;;;;5033695;28;20409;-65
2022/06/18 05:38:21;;;;;;;6.22;2.90;;;20.40;99.90;;;;;;5030387;28;20091;-65
2022/06/18 05:40:49;;;;;;;4.85;2.90;;;20.50;99.90;;;;;;5027397;28;20057;-65
2022/06/18 05:43:16;;;;;;;7.93;3.25;;;20.50;99.90;;;;;;5028132;28;20508;-66
2022/06/18 05:45:44;;;;;;;5.80;2.95;;;20.60;99.90;;;;;;5027808;28;20068;-65
2022/06/18 05:48:12;;;;;;;7.78;2.80;;;20.70;99.90;;;;;;5027281;28;20057;-65
2022/06/18 05:50:40;;;;;;;4.78;2.67;;;20.80;99.90;;;;;;5027568;28;20638;-65
2022/06/18 05:53:09;;;;;;;6.45;3.22;;;20.90;99.90;;;;;;5027065;28;20107;-65
2022/06/18 05:55:46;;;;;;;5.90;2.88;;;21.00;99.90;;;;;;5028627;28;20038;-65
2022/06/18 05:58:23;;;;;;;6.57;2.85;;;21.00;99.90;;;;;;5026398;28;20041;-65
2022/06/18 06:00:53;;;;;;;5.05;2.80;;;21.10;99.90;;;;;;5013062;28;20063;-65
2022/06/18 06:03:21;;;;;;;4.93;2.80;;;21.30;99.90;;;;;;5026373;28;20045;-65
2022/06/18 06:05:49;;;;;;;13.40;3.25;;;21.30;99.90;;;;;;5025897;28;20041;-65
2022/06/18 06:08:17;;;;;;;6.32;2.88;;;21.40;99.90;;;;;;5026342;28;20042;-65
2022/06/18 06:13:32;;;;;;;5.93;2.97;;;21.60;99.90;;;;;;5030166;28;20112;-65
2022/06/18 06:15:59;;;;;;;6.30;3.00;;;21.70;99.90;;;;;;5030433;28;20115;-65
2022/06/18 06:18:29;;;;;;;5.97;2.80;;;21.80;99.90;;;;;;5030916;28;20041;-65
2022/06/18 06:20:58;;;;;;;6.05;2.60;;;22.00;99.90;;;;;;5033445;28;20412;-65
2022/06/18 06:23:25;;;;;;;6.88;3.15;;;22.10;99.90;;;;;;5019822;28;20049;-65
2022/06/18 06:25:53;;;;;;;7.97;2.80;;;22.20;99.90;;;;;;5030715;28;20128;-65
2022/06/18 06:28:22;;;;;;;5.03;3.00;;;22.30;99.90;;;;;;5029034;28;20041;-64
2022/06/18 06:30:52;;;;;;;5.93;3.00;;;22.40;99.90;;;;;;5009359;28;20515;-65
2022/06/18 06:33:20;;;;;;;5.32;2.90;;;22.40;99.90;;;;;;5028329;28;20046;-65
2022/06/18 06:35:48;;;;;;;5.05;3.17;;;22.50;99.90;;;;;;5015628;28;20540;-65
2022/06/18 06:38:16;;;;;;;5.40;2.72;;;22.50;99.90;;;;;;5033729;28;20586;-65
2022/06/18 06:40:44;;;;;;;5.13;3.10;;;22.50;99.90;;;;;;5031997;28;20060;-65
2022/06/18 06:43:16;;;;;;;8.27;3.45;;;22.60;99.90;;;;;;5032687;28;20045;-65
2022/06/18 06:45:45;;;;;;;5.97;3.13;;;22.70;99.90;;;;;;5030504;28;20114;-65
2022/06/18 06:48:12;;;;;;;5.90;3.20;;;22.80;99.90;;;;;;5029751;28;20052;-65
2022/06/18 06:50:41;;;;;;;5.05;3.50;;;22.90;99.90;;;;;;5031189;28;20520;-65
2022/06/18 06:53:09;;;;;;;5.07;3.42;;;23.00;99.90;;;;;;5031406;28;20033;-65
2022/06/18 06:58:24;;;;;;;5.88;3.63;;;23.20;99.80;;;;;;5027249;28;20064;-65
2022/06/18 07:00:54;;;;;;;6.47;3.70;;;23.30;99.90;;;;;;5020837;28;20507;-65
2022/06/18 07:03:33;;;;;;;6.15;3.85;;;23.40;99.70;;;;;;5030692;28;20315;-65
2022/06/18 07:06:01;;;;;;;7.05;3.63;;;23.40;99.50;;;;;;5007505;28;20668;-65
2022/06/18 07:08:29;;;;;;;4.90;3.33;;;23.60;99.50;;;;;;5030156;28;20520;-65
2022/06/18 07:10:57;;;;;;;9.52;4.13;;;23.80;99.40;;;;;;5029725;28;20041;-65
2022/06/18 07:13:29;;;;;;;8.15;3.83;;;23.80;99.10;;;;;;5031708;28;20511;-64
2022/06/18 07:15:57;;;;;;;5.82;3.88;;;23.80;99.00;;;;;;5022637;28;20041;-65
2022/06/18 07:18:31;;;;;;;8.25;4.25;;;23.90;98.80;;;;;;5028804;28;20136;-65
2022/06/18 07:21:02;;;;;;;8.38;4.10;;;24.10;98.80;;;;;;5029347;28;20132;-65
2022/06/18 07:23:31;;;;;;;4.78;3.35;;;24.10;98.50;;;;;;5024061;28;20453;-65
2022/06/18 07:25:59;;;;;;;7.13;3.63;;;24.20;98.50;;;;;;5029676;28;20069;-65
2022/06/18 07:28:26;;;;;;;6.03;4.03;;;24.40;98.20;;;;;;5026926;28;20037;-65
2022/06/18 07:30:54;;;;;;;7.53;4.05;;;24.50;98.10;;;;;;5010955;28;20136;-65
2022/06/18 07:33:25;;;;;;;7.50;4.00;;;24.60;97.80;;;;;;5026170;28;20067;-65
2022/06/18 07:35:52;;;;;;;5.75;3.97;;;24.70;97.80;;;;;;5034527;28;20595;-65
2022/06/18 07:38:20;;;;;;;7.28;4.00;;;24.80;97.80;;;;;;5033228;28;20046;-65
2022/06/18 07:40:50;;;;;;;5.25;3.80;;;25.10;97.50;;;;;;5028474;28;20512;-65
2022/06/18 07:43:37;;;;;;;6.20;3.80;;;25.10;96.80;;;;;;5030438;28;20045;-65
2022/06/18 07:46:07;;;;;;;5.38;3.47;;;25.20;96.60;;;;;;5020207;28;20135;-65
2022/06/18 07:48:35;;;;;;;6.80;3.50;;;25.30;96.60;;;;;;5028316;28;20447;-65
2022/06/18 07:51:03;;;;;;;6.95;3.63;;;25.50;96.20;;;;;;5030333;28;20060;-65
2022/06/18 07:53:31;;;;;;;6.65;3.50;;;25.60;95.80;;;;;;5019018;28;20100;-65
2022/06/18 07:55:58;;;;;;;4.75;3.45;;;25.60;95.90;;;;;;5029698;28;20546;-65
2022/06/18 07:58:29;;;;;;;4.78;3.45;;;25.70;96.10;;;;;;5029552;28;20042;-65
2022/06/18 08:00:57;;;;;;;6.60;3.30;;;25.80;95.70;;;;;;5012345;28;20200;-65
2022/06/18 08:03:26;;;;;;;8.00;3.45;;;26.10;95.00;;;;;;5023138;28;20060;-65
2022/06/18 08:05:54;;;;;;;6.40;3.72;;;26.10;95.20;;;;;;5021848;28;20048;-65
2022/06/18 08:08:21;;;;;;;5.85;3.47;;;26.20;95.00;;;;;;5022677;28;20053;-65
2022/06/18 08:11:07;;;;;;;7.07;3.40;;;26.30;95.00;;;;;;5022362;28;20072;-65
2022/06/18 08:13:35;;;;;;;6.27;3.87;;;26.60;95.00;;;;;;5016209;28;20074;-64
2022/06/18 08:16:03;;;;;;;5.40;3.50;;;26.70;94.80;;;;;;5029514;28;20045;-66
2022/06/18 08:18:30;;;;;;;7.20;3.78;;;26.80;94.30;;;;;;5030023;28;20041;-65
2022/06/18 08:21:03;;;;;;;5.40;3.08;;;26.90;94.10;;;;;;5029910;28;20068;-65
2022/06/18 08:23:31;;;;;;;6.57;3.70;;;27.00;93.90;;;;;;5025217;28;20040;-65
2022/06/18 08:25:59;;;;;;;4.85;3.35;;;27.20;93.70;;;;;;5024860;28;20037;-64
2022/06/18 08:28:26;;;;;;;5.30;3.10;;;27.40;93.50;;;;;;5027914;28;20239;-64
2022/06/18 08:30:53;;;;;;;5.78;2.80;;;27.40;92.90;;;;;;5017840;28;20056;-66
2022/06/18 08:33:21;;;;;;;4.95;2.63;;;27.60;92.00;;;;;;5024344;28;20473;-65
2022/06/18 08:35:48;;;;;;;4.78;2.88;;;27.70;92.10;;;;;;5034578;28;20128;-65
2022/06/18 08:38:16;;;;;;;3.88;2.95;;;27.80;92.10;;;;;;5031311;28;20046;-65
2022/06/18 08:40:53;;;;;;;6.10;2.60;;;28.00;91.90;;;;;;5017686;28;20072;-66
2022/06/18 08:43:40;;;;;;;4.45;2.60;;;28.10;91.30;;;;;;5029242;28;20046;-66
2022/06/18 08:46:35;;;;;;;3.50;2.20;;;28.20;90.90;;;;;;5021411;28;20033;-66
2022/06/18 08:49:42;;;;;;;4.40;3.10;;;28.30;90.40;;;;;;5019828;28;20057;-65
2022/06/18 08:52:21;;;;;;;4.40;2.58;;;28.40;90.50;;;;;;5027965;28;20523;-65
2022/06/18 08:54:55;;;;;;;3.92;2.30;;;28.50;88.10;;;;;;5021878;28;20476;-65
2022/06/18 08:57:42;;;;;;;4.70;2.60;;;28.50;86.60;;;;;;5029113;28;20564;-65
2022/06/18 09:00:35;;;;;;;6.32;2.47;;;28.70;85.60;;;;;;5022422;28;20651;-65
2022/06/18 09:03:15;;;;;;;3.30;2.10;;;28.90;85.10;;;;;;5029526;28;20895;-66
2022/06/18 09:06:13;;;;;;;;;;;29.20;83.90;;;;;;5028109;28;20096;-65
2022/06/18 09:09:17;;;;;;;6.90;2.42;;;29.50;83.30;;;;;;5031482;28;19929;-66
2022/06/18 09:11:54;;;;;;;5.10;1.88;;;29.70;81.60;;;;;;5013733;28;20046;-65
2022/06/18 09:14:30;;;;;;;5.13;2.08;;;29.80;81.00;;;;;;5029069;28;20037;-65
2022/06/18 09:17:12;;;;;;;3.67;2.00;;;29.80;79.50;;;;;;5028016;28;20045;-65
2022/06/18 09:19:42;;;;;;;4.85;2.10;;;29.80;80.00;;;;;;5028418;28;20038;-64
2022/06/18 09:22:17;;;;;;;8.02;4.00;;;29.90;79.10;;;;;;5029027;28;20151;-65
2022/06/18 09:24:48;;;;;;;3.47;2.05;;;30.00;79.10;;;;;;5022853;28;20128;-66
2022/06/18 09:27:37;;;;;;;4.63;1.90;;;30.30;78.40;;;;;;5028832;28;20037;-65
2022/06/18 09:30:14;;;;;;;3.60;1.88;;;30.10;75.60;;;;;;5026388;28;20124;-66
2022/06/18 09:32:53;;;;;;;3.92;2.17;;;29.90;76.20;;;;;;5018482;28;20437;-66
2022/06/18 09:35:33;;;;;;;5.10;1.90;;;29.90;76.50;;;;;;5014104;28;20117;-65
2022/06/18 09:38:12;;;;;;;3.50;2.10;;;30.00;76.70;;;;;;5024493;28;20129;-64
2022/06/18 09:40:55;;;;;;;4.18;1.98;;;30.10;75.40;;;;;;5021201;28;20480;-66
2022/06/18 09:43:42;;;;;;;2.40;1.55;;;30.30;74.20;;;;;;5024991;28;20042;-66
2022/06/18 09:46:20;;;;;;;4.00;2.00;;;30.30;73.40;;;;;;5026877;28;20038;-64
2022/06/18 09:48:48;;;;;;;4.93;2.05;;;30.30;73.00;;;;;;5027240;28;20412;-64
2022/06/18 09:51:30;;;;;;;4.32;1.98;;;30.40;72.90;;;;;;5028209;28;20045;-64
2022/06/18 09:54:05;;;;;;;8.13;2.15;;;30.50;73.30;;;;;;5018847;28;20387;-65
2022/06/18 09:56:43;;;;;;;5.05;2.05;;;30.70;73.90;;;;;;5017922;28;20038;-64
2022/06/18 09:59:27;;;;;;;4.57;1.80;;;30.80;72.80;;;;;;5020575;28;20401;-64
2022/06/18 10:01:56;;;;;;;3.30;1.75;;;30.70;73.30;;;;;;5019915;28;20569;-66
2022/06/18 10:07:19;;;;;;;4.87;2.00;;;30.90;72.40;;;;;;5030872;28;20041;-66
2022/06/18 10:10:06;;;;;;;4.38;1.88;;;31.20;71.70;;;;;;5018399;28;20611;-65
2022/06/18 10:12:59;;;;;;;6.72;2.15;;;31.10;72.00;;;;;;5024792;28;20050;-65
2022/06/18 10:15:28;;;;;;;3.63;1.80;;;31.00;70.60;;;;;;5017245;28;20046;-64
2022/06/18 10:18:16;;;;;;;4.68;1.80;;;31.20;70.20;;;;;;5028246;28;20060;-66
2022/06/18 10:20:52;;;;;;;4.60;1.80;;;31.10;68.80;;;;;;5022661;28;20053;-65
2022/06/18 10:23:53;;;;;;;7.18;2.33;;;31.40;68.60;;;;;;5025245;28;20045;-67
2022/06/18 10:26:31;;;;;;;4.28;2.08;;;31.80;69.20;;;;;;5015412;28;20293;-65
2022/06/18 10:29:19;;;;;;;5.78;2.20;;;31.70;69.00;;;;;;5023240;28;20066;-65
2022/06/18 10:32:10;;;;;;;10.52;2.03;;;31.70;68.90;;;;;;5024977;28;20499;-66
2022/06/18 10:35:19;;;;;;;5.68;2.20;;;31.70;68.20;;;;;;5026943;28;20519;-66
2022/06/18 10:37:55;;;;;;;4.00;1.73;;;31.80;67.70;;;;;;5022783;28;20050;-65
2022/06/18 10:41:08;;;;;;;4.35;2.75;;;31.90;68.00;;;;;;5013750;28;20477;-65
2022/06/18 10:44:03;;;;;;;9.48;2.63;;;32.50;67.50;;;;;;5025818;28;20432;-65
2022/06/18 10:46:31;;;;;;;6.75;5.40;;;32.60;66.60;;;;;;5028242;28;20048;-65
2022/06/18 10:49:04;;;;;;;7.00;2.75;;;33.00;66.00;;;;;;5028874;28;20057;-65
2022/06/18 10:51:43;;;;;;;4.97;2.42;;;33.40;65.50;;;;;;5028881;28;20061;-65
2022/06/18 10:54:10;;;;;;;4.35;2.22;;;33.20;65.00;;;;;;5019493;28;20477;-66
2022/06/18 10:56:53;;;;;;;5.40;2.00;;;33.20;64.90;;;;;;5025140;28;20069;-65
2022/06/18 10:59:39;;;;;;;7.53;2.10;;;33.10;64.10;;;;;;5026032;28;20057;-65
2022/06/18 11:02:11;;;;;;;4.93;2.13;;;33.60;63.70;;;;;;5019336;28;20068;-66
2022/06/18 11:05:12;;;;;;;5.65;2.10;;;34.10;63.30;;;;;;5023528;28;20050;-65
2022/06/18 11:07:39;;;;;;;5.55;2.65;;;33.90;63.30;;;;;;5013291;28;20046;-66
2022/06/18 11:10:32;;;;;;;4.05;2.42;;;34.30;63.10;;;;;;5025511;28;20411;-65
2022/06/18 11:13:00;;;;;;;5.03;2.22;;;34.60;62.70;;;;;;5030740;28;20544;-66
2022/06/18 11:15:34;;;;;;;6.95;2.35;;;34.00;62.80;;;;;;5031548;28;20056;-66
2022/06/18 11:18:15;;;;;;;5.80;2.05;;;33.70;63.00;;;;;;5029468;28;20413;-65
2022/06/18 11:20:58;;;;;;;7.07;2.10;;;33.90;64.30;;;;;;5030581;28;20045;-65
2022/06/18 11:23:26;;;;;;;6.57;2.05;;;33.90;62.70;;;;;;5031958;28;20067;-65
2022/06/18 11:25:57;;;;;;;8.73;2.88;;;34.20;61.70;;;;;;5030445;28;20131;-65
2022/06/18 11:28:36;;;;;;;;;;;34.60;61.20;;;;;;5031905;28;20060;-64
2022/06/18 11:31:04;;;;;;;6.47;2.50;;;35.00;61.20;;;;;;5030557;28;20312;-65
2022/06/18 11:33:41;;;;;;;5.47;2.13;;;35.40;59.90;;;;;;5030372;28;20053;-65
2022/06/18 11:36:11;;;;;;;5.53;2.40;;;35.10;60.90;;;;;;5031015;28;20038;-64
2022/06/18 11:38:40;;;;;;;8.70;2.78;;;35.10;61.40;;;;;;5026812;28;21465;-65
2022/06/18 11:41:11;;;;;;;8.60;2.42;;;35.20;61.40;;;;;;5022813;28;20045;-64
2022/06/18 11:43:56;;;;;;;8.50;2.47;;;35.80;60.20;;;;;;5030835;28;20049;-64
2022/06/18 11:46:39;;;;;;;8.40;2.65;;;36.20;59.60;;;;;;5022644;28;20033;-65
2022/06/18 11:49:23;;;;;;;5.93;2.15;;;36.80;59.40;;;;;;5022787;28;20133;-65
2022/06/18 11:51:56;;;;;;;6.65;2.60;;;36.40;59.10;;;;;;5027106;28;20455;-66
2022/06/18 11:54:36;;;;;;;5.45;2.40;;;36.30;59.00;;;;;;5028111;28;20048;-66
2022/06/18 11:57:18;;;;;;;9.70;2.63;;;36.80;58.30;;;;;;5027851;28;20041;-65
2022/06/18 11:59:58;;;;;;;6.65;2.50;;;37.50;57.60;;;;;;5030295;28;20048;-66
2022/06/18 12:02:50;;;;;;;7.53;2.13;;;37.20;57.10;;;;;;5023389;28;20042;-65
2022/06/18 12:05:35;;;;;;;10.93;2.53;;;37.40;56.70;;;;;;5037971;28;20449;-66
2022/06/18 12:08:04;;;;;;;9.75;2.55;;;37.20;56.60;;;;;;5010594;28;20392;-66
2022/06/18 12:10:52;;;;;;;9.85;2.38;;;37.40;54.80;;;;;;5028100;28;20156;-66
2022/06/18 12:13:32;;;;;;;8.88;2.70;;;37.20;55.20;;;;;;5029287;28;20140;-65
2022/06/18 12:16:23;;;;;;;7.40;2.90;;;37.10;54.90;;;;;;5016480;28;20045;-65
2022/06/18 12:19:10;;;;;;;;;;;37.70;54.40;;;;;;5030235;28;20045;-64
2022/06/18 12:21:47;;;;;;;8.65;2.90;;;37.90;54.80;;;;;;5029779;28;19925;-65
2022/06/18 12:24:28;;;;;;;8.85;2.53;;;38.50;54.10;;;;;;5022463;28;20125;-65
2022/06/18 12:27:13;;;;;;;13.65;2.70;;;38.40;53.60;;;;;;5016042;28;20038;-65
2022/06/18 12:29:55;;;;;;;10.43;2.53;;;38.80;53.20;;;;;;5026208;28;20056;-66
2022/06/18 12:32:55;;;;;;;16.38;3.28;;;39.50;52.70;;;;;;5011700;28;20054;-65
2022/06/18 12:35:58;;;;;;;11.27;2.97;;;39.90;51.80;;;;;;5026364;28;20054;-66
2022/06/18 12:38:48;;;;;;;16.63;3.63;;;40.40;51.20;;;;;;5007684;28;20144;-65
2022/06/18 12:41:40;;;;;;;15.30;3.50;;;40.40;50.60;;;;;;5001057;28;20046;-66
2022/06/18 12:44:10;;;;;;;14.43;3.08;;;41.10;49.90;;;;;;4995971;28;20046;-66
2022/06/18 12:47:22;;;;;;;12.52;2.65;;;40.50;50.50;;;;;;4996940;28;20445;-64
2022/06/18 12:50:08;;;;;;;12.60;2.80;;;40.00;50.30;;;;;;4996171;28;20472;-65
2022/06/18 12:52:47;;;;;;;12.32;2.42;;;40.40;50.40;;;;;;5006554;28;20058;-64
2022/06/18 12:56:07;;;;;;;10.88;2.95;;;40.70;50.00;;;;;;5006960;28;20057;-65
2022/06/18 12:59:17;;;;;;;10.30;3.08;;;40.40;50.70;;;;;;4964500;28;20757;-66
2022/06/18 13:01:54;;;;;;;14.82;3.40;;;40.20;50.10;;;;;;4968045;28;20526;-66
2022/06/18 13:04:58;;;;;;;9.88;2.90;;;39.50;50.70;;;;;;4961189;28;20054;-64
2022/06/18 13:07:47;;;;;;;10.57;2.95;;;39.50;50.60;;;;;;4954889;28;20226;-65
2022/06/18 13:10:45;;;;;;;12.98;2.78;;;40.10;50.70;;;;;;4951604;28;20522;-65
2022/06/18 13:13:39;;;;;;;12.68;2.95;;;41.00;49.80;;;;;;4953417;28;20137;-65
2022/06/18 13:16:37;;;;;;;15.27;3.17;;;41.20;49.40;;;;;;4980057;28;20066;-64
2022/06/18 13:19:07;;;;;;;10.82;2.67;;;41.40;49.60;;;;;;4985119;28;20481;-65
2022/06/18 13:21:35;;;;;;;12.95;3.40;;;41.40;49.30;;;;;;4969688;28;20050;-64
2022/06/18 13:30:08;;;;;;;10.07;2.63;;;42.60;48.40;;;;;;4981470;28;20403;-65
2022/06/18 13:32:57;;;;;;;10.25;2.88;;;43.40;47.90;;;;;;4995093;28;20053;-65
2022/06/18 13:35:29;;;;;;;11.25;2.95;;;43.00;47.90;;;;;;5030488;28;20132;-66
2022/06/18 13:38:08;;;;;;;10.50;2.65;;;42.10;48.30;;;;;;5035507;28;20425;-65
2022/06/18 13:40:46;;;;;;;9.10;2.92;;;42.80;48.20;;;;;;5029438;28;20129;-65
2022/06/18 13:43:31;;;;;;;10.45;3.50;;;43.00;47.80;;;;;;5029718;28;20131;-65
2022/06/18 13:46:02;;;;;;;11.82;2.90;;;43.40;47.60;;;;;;5017960;28;20042;-65